Menu Close Menu
Station Historical Data
Daily Summary for March 29, 2017 Units:  English    Metric   Both
« Previous Day
Next Day »
Daily Weekly Monthly Yearly Custom
  High: Low: Average:
Temperature: 82.8 °F 54.6 °F 68.6 °F
Dew Point: 58.1 °F 52.3 °F 55 °F
Humidity: 92% 40% 65%
Wind Speed: 2.0mph 0.0mph 0.1mph
Wind Gust: 5.0mph - -
Wind- - SSW
Pressure: 30.07 in 29.96 in -
Precipitation: 0.00 in    
Historical Graphs
 
 
Tabular Data for March 29, 2017
Time Temperature Dew Point Pressure Wind Wind Speed Wind Gust Humidity Rainfall Rate (Hourly) solar Conditions
00:00 62.2 °F 54.5 °F 30.01 in Calm     76% 0.00 in 0.0 W/m2 RA
00:15 62.4 °F 54.7 °F 30.01 in Calm     76% 0.00 in 0.0 W/m2 SCT
00:30 62.4 °F 54.4 °F 30.01 in Calm     75% 0.00 in 0.0 W/m2 SCT
00:45 62.3 °F 54.3 °F 30.01 in Calm   1.0 mph 75% 0.00 in 0.0 W/m2 SCT
01:00 62.6 °F 53.8 °F 30.01 in Calm     73% 0.00 in 0.0 W/m2 SCT
01:15 62.4 °F 54.0 °F 30.01 in Calm     74% 0.00 in 0.0 W/m2 SCT
01:30 61.7 °F 53.7 °F 30.01 in Calm     75% 0.00 in 0.0 W/m2 SCT
01:45 61.0 °F 53.8 °F 30.02 in Calm     77% 0.00 in 0.0 W/m2 SCT
02:00 60.4 °F 53.5 °F 30.01 in Calm     78% 0.00 in 0.0 W/m2 SCT
02:15 59.8 °F 53.6 °F 30.01 in Calm   1.0 mph 80% 0.00 in 0.0 W/m2 SCT
02:30 59.1 °F 53.2 °F 30.01 in Calm     81% 0.00 in 0.0 W/m2 SCT
02:45 58.0 °F 52.9 °F 30.01 in Calm     83% 0.00 in 0.0 W/m2 SCT
03:00 57.9 °F 52.8 °F 30.00 in Calm     83% 0.00 in 0.0 W/m2 SCT
03:15 57.9 °F 52.8 °F 30.00 in Calm     83% 0.00 in 0.0 W/m2 SCT
03:30 57.9 °F 52.8 °F 30.00 in Calm     83% 0.00 in 0.0 W/m2 SCT
03:45 57.9 °F 52.8 °F 30.00 in Calm     83% 0.00 in 0.0 W/m2 SCT
04:00 57.9 °F 52.8 °F 30.00 in Calm     83% 0.00 in 0.0 W/m2 SCT
04:15 57.9 °F 52.8 °F 29.99 in Calm     83% 0.00 in 0.0 W/m2 SCT
04:30 57.9 °F 52.8 °F 30.00 in Calm     83% 0.00 in 0.0 W/m2 SCT
04:45 57.9 °F 52.8 °F 30.00 in Calm     83% 0.00 in 0.0 W/m2 SCT
05:00 57.9 °F 52.8 °F 30.00 in Calm     83% 0.00 in 0.0 W/m2 SCT
05:15 57.9 °F 52.8 °F 30.00 in Calm     83% 0.00 in 0.0 W/m2 SCT
05:30 57.9 °F 52.8 °F 30.00 in Calm     83% 0.00 in 0.0 W/m2 SCT
05:45 57.9 °F 52.8 °F 30.00 in Calm     83% 0.00 in 0.0 W/m2 SCT
06:00 57.9 °F 52.8 °F 30.00 in Calm     83% 0.00 in 0.0 W/m2 SCT
06:15 57.9 °F 52.8 °F 30.00 in Calm     83% 0.00 in 0.0 W/m2 SCT
06:30 57.9 °F 52.8 °F 30.01 in Calm     83% 0.00 in 0.0 W/m2 SCT
06:45 57.9 °F 52.8 °F 30.01 in Calm     83% 0.00 in 0.0 W/m2 SCT
07:00 57.9 °F 52.8 °F 30.02 in Calm     83% 0.00 in 0.0 W/m2 SCT
07:15 57.9 °F 52.8 °F 30.02 in Calm     83% 0.00 in 0.0 W/m2 SCT
07:30 57.9 °F 52.8 °F 30.02 in Calm     83% 0.00 in 0.0 W/m2 SCT
07:45 57.9 °F 52.8 °F 30.03 in Calm     83% 0.00 in 0.0 W/m2 SCT
08:00 57.9 °F 52.8 °F 30.03 in Calm     83% 0.00 in 0.0 W/m2 SCT
08:15 54.6 °F 52.3 °F 30.04 in Calm     92% 0.00 in 0.0 W/m2 SCT
08:30 55.8 °F 53.5 °F 30.05 in Calm     92% 0.00 in 0.0 W/m2 SCT
08:45 56.9 °F 54.3 °F 30.05 in Calm     91% 0.00 in 0.0 W/m2 SCT
09:00 58.0 °F 54.8 °F 30.06 in Calm     89% 0.00 in 0.0 W/m2 SCT
09:15 59.8 °F 54.6 °F 30.06 in Calm     83% 0.00 in 0.0 W/m2 SCT
09:30 61.0 °F 54.8 °F 30.06 in Calm     80% 0.00 in 0.0 W/m2 SCT
09:45 61.9 °F 54.9 °F 30.06 in Calm     78% 0.00 in 0.0 W/m2 SCT
10:00 63.5 °F 55.1 °F 30.06 in Calm   2.0 mph 74% 0.00 in 0.0 W/m2 SCT
10:15 65.3 °F 55.7 °F 30.06 in Calm   2.0 mph 71% 0.00 in 0.0 W/m2 SCT
10:30 67.5 °F 55.7 °F 30.07 in Calm   2.0 mph 66% 0.00 in 0.0 W/m2 SCT
10:45 69.7 °F 57.0 °F 30.07 in Calm   2.0 mph 64% 0.00 in 0.0 W/m2 SCT
11:00 72.2 °F 56.1 °F 30.07 in Calm   3.0 mph 57% 0.00 in 0.0 W/m2 SCT
11:15 73.6 °F 55.9 °F 30.07 in Calm   3.0 mph 54% 0.00 in 0.0 W/m2 SCT
11:30 74.2 °F 55.9 °F 30.07 in Calm   3.0 mph 53% 0.00 in 0.0 W/m2 SCT
11:45 75.4 °F 54.9 °F 30.07 in West 1.0 mph 5.0 mph 49% 0.00 in 0.0 W/m2 SCT
12:00 76.6 °F 56.6 °F 30.06 in Calm   2.0 mph 50% 0.00 in 0.0 W/m2 SCT
12:15 78.8 °F 55.7 °F 30.06 in Calm   2.0 mph 45% 0.00 in 0.0 W/m2 SCT
12:30 78.8 °F 56.3 °F 30.06 in WNW 1.0 mph 5.0 mph 46% 0.00 in 0.0 W/m2 SCT
12:45 79.1 °F 56.5 °F 30.05 in West 1.0 mph 3.0 mph 46% 0.00 in 0.0 W/m2 SCT
13:00 80.4 °F 57.1 °F 30.05 in Calm   2.0 mph 45% 0.00 in 0.0 W/m2 SCT
13:15 80.9 °F 56.3 °F 30.04 in NW 1.0 mph 3.0 mph 43% 0.00 in 0.0 W/m2 SCT
13:30 81.9 °F 57.2 °F 30.03 in SSW 1.0 mph 3.0 mph 43% 0.00 in 0.0 W/m2 SCT
13:45 81.9 °F 57.8 °F 30.03 in SSE 1.0 mph 3.0 mph 44% 0.00 in 0.0 W/m2 SCT
14:00 82.8 °F 56.0 °F 30.03 in WSW 1.0 mph 3.0 mph 40% 0.00 in 0.0 W/m2 SCT
14:15 81.5 °F 55.6 °F 30.03 in ESE 1.0 mph 5.0 mph 41% 0.00 in 0.0 W/m2 SCT
14:30 81.6 °F 56.3 °F 30.03 in Calm   5.0 mph 42% 0.00 in 0.0 W/m2 SCT
14:45 81.6 °F 57.6 °F 30.03 in Calm   5.0 mph 44% 0.00 in 0.0 W/m2 SCT
15:00 80.2 °F 56.3 °F 30.03 in NE 1.0 mph 5.0 mph 44% 0.00 in 0.0 W/m2 SCT
15:15 79.3 °F 55.5 °F 30.03 in South 2.0 mph 5.0 mph 44% 0.00 in 0.0 W/m2 SCT
15:30 78.8 °F 55.0 °F 30.02 in Calm   3.0 mph 44% 0.00 in 0.0 W/m2 SCT
15:45 79.7 °F 55.2 °F 30.01 in Calm   5.0 mph 43% 0.00 in 0.0 W/m2 SCT
16:00 79.9 °F 56.7 °F 30.01 in Calm   1.0 mph 45% 0.00 in 0.0 W/m2 SCT
16:15 80.5 °F 55.3 °F 30.00 in Calm   3.0 mph 42% 0.00 in 0.0 W/m2 SCT
16:30 80.5 °F 54.6 °F 30.00 in Calm   3.0 mph 41% 0.00 in 0.0 W/m2 SCT
16:45 80.3 °F 55.1 °F 30.00 in Calm   2.0 mph 42% 0.00 in 0.0 W/m2 SCT
17:00 80.1 °F 56.2 °F 29.99 in Calm   2.0 mph 44% 0.00 in 0.0 W/m2 SCT
17:15 79.9 °F 55.4 °F 29.98 in South 1.0 mph 2.0 mph 43% 0.00 in 0.0 W/m2 SCT
17:30 79.6 °F 55.1 °F 29.98 in Calm   1.0 mph 43% 0.00 in 0.0 W/m2 SCT
17:45 79.5 °F 55.0 °F 29.98 in Calm   1.0 mph 43% 0.00 in 0.0 W/m2 SCT
18:00 79.6 °F 55.8 °F 29.97 in Calm   1.0 mph 44% 0.00 in 0.0 W/m2 SCT
18:15 79.5 °F 56.3 °F 29.97 in Calm   1.0 mph 45% 0.00 in 0.0 W/m2 SCT
18:45 79.5 °F 55.1 °F 29.97 in Calm     43% 0.00 in 0.0 W/m2 SCT
19:00 78.8 °F 56.3 °F 29.97 in Calm     46% 0.00 in 0.0 W/m2 SCT
19:15 77.8 °F 57.1 °F 29.97 in Calm     49% 0.00 in 0.0 W/m2 SCT
19:30 76.8 °F 57.3 °F 29.96 in Calm     51% 0.00 in 0.0 W/m2 SCT
19:45 75.8 °F 56.9 °F 29.97 in Calm     52% 0.00 in 0.0 W/m2 SCT
20:00 74.6 °F 56.3 °F 29.96 in Calm     53% 0.00 in 0.0 W/m2 SCT
20:15 73.5 °F 56.8 °F 29.97 in Calm     56% 0.00 in 0.0 W/m2 SCT
20:30 72.3 °F 56.2 °F 29.96 in Calm     57% 0.00 in 0.0 W/m2 SCT
20:45 71.4 °F 56.3 °F 29.97 in Calm     59% 0.00 in 0.0 W/m2 SCT
21:00 70.9 °F 56.3 °F 29.97 in Calm     60% 0.00 in 0.0 W/m2 SCT
21:15 69.8 °F 56.6 °F 29.97 in Calm     63% 0.00 in 0.0 W/m2 SCT
21:30 69.8 °F 56.2 °F 29.97 in Calm     62% 0.00 in 0.0 W/m2 SCT
21:45 69.6 °F 56.4 °F 29.98 in Calm     63% 0.00 in 0.0 W/m2 SCT
22:00 69.1 °F 56.4 °F 29.98 in Calm     64% 0.00 in 0.0 W/m2 SCT
22:15 69.2 °F 56.9 °F 29.99 in Calm     65% 0.00 in 0.0 W/m2 SCT
22:30 69.1 °F 56.4 °F 29.99 in Calm     64% 0.00 in 0.0 W/m2 SCT
22:45 69.6 °F 56.0 °F 29.99 in Calm     62% 0.00 in 0.0 W/m2 SCT
23:00 69.8 °F 56.6 °F 29.99 in Calm     63% 0.00 in 0.0 W/m2 SCT
23:15 69.4 °F 58.0 °F 29.99 in Calm     67% 0.00 in 0.0 W/m2 SCT
23:30 68.7 °F 58.1 °F 29.99 in Calm     69% 0.00 in 0.0 W/m2 SCT
23:45 68.3 °F 57.3 °F 29.98 in Calm     68% 0.00 in 0.0 W/m2 SCT
Piedmont Bend
Compliments of Weather Underground - 4 mb